createdAt,value
2023-02-23T00:02:11.483Z,100.00
2023-02-23T00:07:13.095Z,100.00
2023-02-23T00:12:17.167Z,100.00
2023-02-23T00:17:18.961Z,100.00
2023-02-23T00:22:20.612Z,100.00
2023-02-23T00:27:22.117Z,100.00
2023-02-23T00:32:24.498Z,100.00
2023-02-23T00:37:26.326Z,100.00
2023-02-23T00:42:32.201Z,100.00
2023-02-23T00:47:36.440Z,100.00
2023-02-23T00:52:38.866Z,100.00
2023-02-23T00:57:40.414Z,100.00
2023-02-23T01:02:42.422Z,100.00
2023-02-23T01:07:47.221Z,100.00
2023-02-23T01:12:49.761Z,100.00
2023-02-23T01:17:51.363Z,100.00
2023-02-23T01:22:52.915Z,100.00
2023-02-23T01:27:54.832Z,99.65
2023-02-23T01:32:56.450Z,99.12
2023-02-23T01:37:57.975Z,98.04
2023-02-23T01:42:59.549Z,99.49
2023-02-23T01:48:04.195Z,98.98
2023-02-23T01:53:06.127Z,99.02
2023-02-23T01:58:15.342Z,99.13
2023-02-23T02:03:26.675Z,97.95
2023-02-23T02:08:32.587Z,99.84
2023-02-23T02:13:37.229Z,98.94
2023-02-23T02:18:51.029Z,99.13
2023-02-23T02:23:52.535Z,99.61
2023-02-23T02:29:06.144Z,100.00
2023-02-23T02:34:08.209Z,98.97
2023-02-23T02:39:23.069Z,98.27
2023-02-23T02:44:24.536Z,97.98
2023-02-23T02:49:29.953Z,98.08
2023-02-23T02:54:56.538Z,97.35
2023-02-23T03:00:16.682Z,97.28
2023-02-23T03:05:38.602Z,97.58
2023-02-23T03:11:08.061Z,97.06
2023-02-23T03:16:40.638Z,96.80
2023-02-23T03:22:08.837Z,97.19
2023-02-23T03:27:41.238Z,97.83
2023-02-23T03:33:18.392Z,96.76
2023-02-23T03:38:48.181Z,98.11
2023-02-23T03:44:14.224Z,98.21
2023-02-23T03:49:36.063Z,98.57
2023-02-23T03:54:59.469Z,98.96
2023-02-23T04:00:21.928Z,98.68
2023-02-23T04:05:42.270Z,98.89
2023-02-23T04:11:08.425Z,97.58
2023-02-23T04:16:10.638Z,96.45
2023-02-23T04:21:12.274Z,96.48
2023-02-23T04:26:13.781Z,98.53
2023-02-23T04:31:16.333Z,97.52
2023-02-23T04:36:18.013Z,97.17
2023-02-23T04:41:20.276Z,97.99
2023-02-23T04:46:21.943Z,99.02
2023-02-23T04:51:23.480Z,98.60
2023-02-23T04:56:25.245Z,99.03
2023-02-23T05:01:27.198Z,100.00
2023-02-23T05:06:28.763Z,100.00
2023-02-23T05:11:30.320Z,100.00
2023-02-23T05:16:32.203Z,100.00
2023-02-23T05:21:33.746Z,100.00
2023-02-23T05:26:35.272Z,100.00
2023-02-23T05:31:36.863Z,100.00
2023-02-23T05:36:38.515Z,100.00
2023-02-23T05:41:40.161Z,100.00
2023-02-23T05:46:41.648Z,100.00
2023-02-23T05:51:43.178Z,100.00
2023-02-23T05:56:44.711Z,100.00
2023-02-23T06:01:46.507Z,100.00
2023-02-23T06:06:48.001Z,100.00
2023-02-23T06:11:49.625Z,100.00
2023-02-23T06:16:51.267Z,100.00
2023-02-23T06:21:55.799Z,100.00
2023-02-23T06:26:57.343Z,100.00
2023-02-23T06:32:01.118Z,100.00
2023-02-23T06:37:02.788Z,100.00
2023-02-23T06:42:04.274Z,100.00
2023-02-23T06:47:06.193Z,100.00
2023-02-23T06:52:08.363Z,100.00
2023-02-23T06:57:10.140Z,100.00
2023-02-23T07:02:12.853Z,100.00
2023-02-23T07:07:14.519Z,99.32
2023-02-23T07:12:16.162Z,99.08
2023-02-23T07:17:17.843Z,97.80
2023-02-23T07:22:19.468Z,98.25
2023-02-23T07:27:20.982Z,99.25
2023-02-23T07:32:22.645Z,96.76
2023-02-23T07:37:24.257Z,95.74
2023-02-23T07:42:26.933Z,95.88
2023-02-23T07:47:31.406Z,95.52
2023-02-23T07:52:32.893Z,97.28
2023-02-23T07:57:34.685Z,93.86
2023-02-23T08:02:36.411Z,96.24
2023-02-23T08:07:37.979Z,94.28
2023-02-23T08:12:39.593Z,93.02
2023-02-23T08:17:41.301Z,94.97
2023-02-23T08:22:49.800Z,91.96
2023-02-23T08:27:54.542Z,92.99
2023-02-23T08:32:56.035Z,90.15
2023-02-23T08:37:58.016Z,89.87
2023-02-23T08:42:59.511Z,88.77
2023-02-23T08:48:01.016Z,89.87
2023-02-23T08:53:02.609Z,90.51
2023-02-23T08:58:04.724Z,89.44
2023-02-23T09:03:06.828Z,86.87
2023-02-23T09:08:08.332Z,87.97
2023-02-23T09:13:13.250Z,86.23
2023-02-23T09:18:14.964Z,87.05
2023-02-23T09:23:16.474Z,88.01
2023-02-23T09:28:19.928Z,88.14
2023-02-23T09:33:21.598Z,85.20
2023-02-23T09:38:24.520Z,85.76
2023-02-23T09:43:26.000Z,81.90
2023-02-23T09:48:28.567Z,80.22
2023-02-23T09:53:39.421Z,79.76
2023-02-23T09:58:41.006Z,76.72
2023-02-23T10:04:08.652Z,74.45
2023-02-23T10:09:14.544Z,73.61
2023-02-23T10:14:25.548Z,73.72
2023-02-23T10:19:36.421Z,73.46
2023-02-23T10:24:51.922Z,72.49
2023-02-23T10:29:58.579Z,70.20
2023-02-23T10:35:00.172Z,69.38
2023-02-23T10:40:02.382Z,69.24
2023-02-23T10:45:04.075Z,68.20
2023-02-23T10:50:06.646Z,68.88
2023-02-23T10:55:22.685Z,66.95
2023-02-23T11:00:32.633Z,68.75
2023-02-23T11:05:34.295Z,68.35
2023-02-23T11:10:35.914Z,64.86
2023-02-23T11:15:50.736Z,64.66
2023-02-23T11:20:52.828Z,64.97
2023-02-23T11:25:55.641Z,60.90
2023-02-23T11:31:01.629Z,60.73
2023-02-23T11:36:23.471Z,61.38
2023-02-23T11:41:25.030Z,60.94
2023-02-23T11:46:27.617Z,59.01
2023-02-23T11:51:31.115Z,56.27
2023-02-23T11:56:34.141Z,59.15
2023-02-23T12:01:35.989Z,57.78
2023-02-23T12:06:39.086Z,58.21
2023-02-23T12:11:42.439Z,57.85
2023-02-23T12:16:49.158Z,59.92
2023-02-23T12:21:58.340Z,57.31
2023-02-23T12:27:26.366Z,57.60
2023-02-23T12:32:30.984Z,60.30
2023-02-23T12:37:37.517Z,60.28
2023-02-23T12:43:02.006Z,62.70
2023-02-23T12:48:25.522Z,60.25
2023-02-23T12:53:36.164Z,61.01
2023-02-23T12:58:56.460Z,60.70
2023-02-23T13:04:22.574Z,62.02
2023-02-23T13:09:53.708Z,62.01
2023-02-23T13:15:15.759Z,63.08
2023-02-23T13:20:21.654Z,64.01
2023-02-23T13:25:43.491Z,65.17
2023-02-23T13:30:47.643Z,66.46
2023-02-23T13:35:50.103Z,66.40
2023-02-23T13:40:58.687Z,66.00
2023-02-23T13:46:03.057Z,66.39
2023-02-23T13:51:16.963Z,68.23
2023-02-23T13:56:22.040Z,69.95
2023-02-23T14:01:29.476Z,69.19
2023-02-23T14:06:32.667Z,70.46
2023-02-23T14:11:47.941Z,69.81
2023-02-23T14:17:09.129Z,70.44
2023-02-23T14:22:13.672Z,72.72
2023-02-23T14:27:39.758Z,74.19
2023-02-23T14:32:53.563Z,76.66
2023-02-23T14:37:56.490Z,79.26
2023-02-23T14:43:00.597Z,82.68
2023-02-23T14:48:05.308Z,86.10
2023-02-23T14:53:11.862Z,88.51
2023-02-23T14:58:27.294Z,92.97
2023-02-23T15:03:29.135Z,97.58
2023-02-23T15:08:31.266Z,100.00
2023-02-23T15:18:40.482Z,100.00
2023-02-23T15:23:45.350Z,100.00
2023-02-23T15:28:46.996Z,100.00
2023-02-23T15:33:50.744Z,100.00
2023-02-23T15:38:55.217Z,100.00
2023-02-23T15:44:14.481Z,100.00
2023-02-23T15:49:17.415Z,100.00
2023-02-23T15:54:24.299Z,100.00
2023-02-23T15:59:28.653Z,100.00
2023-02-23T16:04:36.819Z,100.00
2023-02-23T16:09:39.456Z,100.00
2023-02-23T16:14:41.040Z,100.00
2023-02-23T16:19:43.930Z,100.00
2023-02-23T16:24:49.598Z,100.00
2023-02-23T16:29:57.271Z,100.00
2023-02-23T16:35:18.677Z,100.00
2023-02-23T16:40:20.317Z,100.00
2023-02-23T16:45:21.924Z,100.00
2023-02-23T16:50:24.369Z,100.00
2023-02-23T16:55:28.510Z,100.00
2023-02-23T17:00:31.914Z,100.00
2023-02-23T17:05:33.809Z,100.00
2023-02-23T17:10:35.663Z,100.00
2023-02-23T17:15:39.256Z,100.00
2023-02-23T17:20:40.806Z,100.00
2023-02-23T17:25:42.442Z,100.00
2023-02-23T17:30:44.974Z,100.00
2023-02-23T17:35:46.881Z,100.00
2023-02-23T17:40:48.710Z,100.00
2023-02-23T17:45:50.298Z,100.00
2023-02-23T17:50:58.699Z,100.00
2023-02-23T17:56:00.525Z,100.00
2023-02-23T18:01:03.449Z,100.00
2023-02-23T18:06:06.561Z,100.00
2023-02-23T18:11:08.333Z,100.00
2023-02-23T18:16:10.590Z,100.00
2023-02-23T18:21:13.717Z,100.00
2023-02-23T18:26:17.156Z,100.00
2023-02-23T18:31:20.988Z,100.00
2023-02-23T18:36:27.919Z,100.00
2023-02-23T18:41:31.232Z,100.00
2023-02-23T18:46:33.004Z,100.00
2023-02-23T18:51:34.649Z,100.00
2023-02-23T18:56:36.309Z,100.00
2023-02-23T19:01:38.198Z,100.00
2023-02-23T19:06:41.791Z,100.00
2023-02-23T19:11:43.423Z,100.00
2023-02-23T19:16:45.431Z,100.00
2023-02-23T19:21:47.076Z,100.00
2023-02-23T19:26:48.814Z,100.00
2023-02-23T19:31:50.581Z,100.00
2023-02-23T19:36:52.253Z,100.00
2023-02-23T19:41:54.213Z,100.00
2023-02-23T19:46:57.002Z,100.00
2023-02-23T19:51:58.630Z,100.00
2023-02-23T19:57:00.166Z,100.00
2023-02-23T20:02:01.675Z,100.00
2023-02-23T20:07:03.258Z,100.00
2023-02-23T20:12:06.120Z,100.00
2023-02-23T20:17:08.996Z,100.00
2023-02-23T20:22:10.541Z,100.00
2023-02-23T20:27:12.079Z,100.00
2023-02-23T20:32:13.837Z,100.00
2023-02-23T20:37:15.438Z,100.00
2023-02-23T20:42:16.971Z,100.00
2023-02-23T20:47:18.486Z,100.00
2023-02-23T20:52:20.017Z,100.00
2023-02-23T20:57:21.580Z,100.00
2023-02-23T21:02:23.143Z,100.00
2023-02-23T21:07:26.563Z,100.00
2023-02-23T21:12:28.113Z,100.00
2023-02-23T21:17:29.605Z,100.00
2023-02-23T21:22:31.559Z,100.00
2023-02-23T21:27:33.143Z,100.00
2023-02-23T21:32:41.768Z,100.00
2023-02-23T21:37:43.774Z,100.00
2023-02-23T21:42:45.450Z,100.00
2023-02-23T21:47:48.289Z,100.00
2023-02-23T21:52:53.165Z,100.00
2023-02-23T21:57:54.915Z,100.00
2023-02-23T22:02:56.588Z,100.00
2023-02-23T22:07:58.236Z,100.00
2023-02-23T22:13:00.892Z,100.00
2023-02-23T22:18:02.416Z,100.00
2023-02-23T22:23:03.996Z,100.00
2023-02-23T22:28:09.011Z,100.00
2023-02-23T22:33:11.994Z,100.00
2023-02-23T22:38:14.970Z,100.00
2023-02-23T22:43:16.682Z,100.00
2023-02-23T22:48:18.447Z,100.00
2023-02-23T22:53:20.493Z,100.00
2023-02-23T22:58:26.469Z,100.00
2023-02-23T23:03:35.806Z,100.00
2023-02-23T23:08:39.863Z,100.00
2023-02-23T23:13:44.784Z,100.00
2023-02-23T23:18:49.552Z,100.00
2023-02-23T23:23:52.129Z,100.00
2023-02-23T23:28:55.068Z,100.00
2023-02-23T23:33:59.882Z,100.00
2023-02-23T23:39:02.172Z,100.00
2023-02-23T23:44:05.309Z,100.00
2023-02-23T23:49:11.782Z,100.00
2023-02-23T23:54:14.923Z,100.00
2023-02-23T23:59:20.322Z,100.00
